sensor_id;sensor_type;location;lat;lon;timestamp;pressure;altitude;pressure_sealevel;temperature;humidity
70338;BME280;57757;53.198;19.646;2024-01-16T00:01:08;98128.67;;;-3.32;79.96
70338;BME280;57757;53.198;19.646;2024-01-16T00:03:44;98136.33;;;-3.34;79.92
70338;BME280;57757;53.198;19.646;2024-01-16T00:06:12;98138.02;;;-3.37;79.84
70338;BME280;57757;53.198;19.646;2024-01-16T00:08:40;98137.52;;;-3.39;79.83
70338;BME280;57757;53.198;19.646;2024-01-16T00:11:08;98150.60;;;-3.41;79.70
70338;BME280;57757;53.198;19.646;2024-01-16T00:13:35;98154.69;;;-3.42;79.72
70338;BME280;57757;53.198;19.646;2024-01-16T00:16:04;98155.19;;;-3.45;79.58
70338;BME280;57757;53.198;19.646;2024-01-16T00:18:31;98162.67;;;-3.50;79.50
70338;BME280;57757;53.198;19.646;2024-01-16T00:21:01;98174.05;;;-3.55;79.42
70338;BME280;57757;53.198;19.646;2024-01-16T00:23:29;98177.61;;;-3.58;79.29
70338;BME280;57757;53.198;19.646;2024-01-16T00:26:00;98180.66;;;-3.60;79.14
70338;BME280;57757;53.198;19.646;2024-01-16T00:28:28;98186.11;;;-3.62;79.08
70338;BME280;57757;53.198;19.646;2024-01-16T00:30:55;98195.96;;;-3.65;79.05
70338;BME280;57757;53.198;19.646;2024-01-16T00:33:23;98203.43;;;-3.66;79.04
70338;BME280;57757;53.198;19.646;2024-01-16T00:35:51;98208.02;;;-3.68;79.09
70338;BME280;57757;53.198;19.646;2024-01-16T00:38:19;98214.80;;;-3.70;78.97
70338;BME280;57757;53.198;19.646;2024-01-16T00:40:46;98208.85;;;-3.73;78.84
70338;BME280;57757;53.198;19.646;2024-01-16T00:43:14;98219.72;;;-3.76;78.76
70338;BME280;57757;53.198;19.646;2024-01-16T00:45:41;98221.76;;;-3.80;78.70
70338;BME280;57757;53.198;19.646;2024-01-16T00:48:09;98226.34;;;-3.83;78.66
70338;BME280;57757;53.198;19.646;2024-01-16T00:50:41;98230.39;;;-3.86;78.61
70338;BME280;57757;53.198;19.646;2024-01-16T00:53:09;98234.46;;;-3.89;78.57
70338;BME280;57757;53.198;19.646;2024-01-16T00:55:36;98236.33;;;-3.92;78.45
70338;BME280;57757;53.198;19.646;2024-01-16T00:58:04;98238.86;;;-3.95;78.57
70338;BME280;57757;53.198;19.646;2024-01-16T01:00:31;98237.49;;;-3.98;78.50
70338;BME280;57757;53.198;19.646;2024-01-16T01:03:01;98241.39;;;-4.01;78.43
70338;BME280;57757;53.198;19.646;2024-01-16T01:05:29;98245.13;;;-4.04;78.48
70338;BME280;57757;53.198;19.646;2024-01-16T01:07:57;98247.47;;;-4.07;78.43
70338;BME280;57757;53.198;19.646;2024-01-16T01:10:25;98254.60;;;-4.10;78.33
70338;BME280;57757;53.198;19.646;2024-01-16T01:12:52;98251.36;;;-4.14;78.36
70338;BME280;57757;53.198;19.646;2024-01-16T01:15:20;98252.19;;;-4.18;78.29
70338;BME280;57757;53.198;19.646;2024-01-16T01:17:49;98256.58;;;-4.22;78.24
70338;BME280;57757;53.198;19.646;2024-01-16T01:20:18;98258.61;;;-4.25;78.39
70338;BME280;57757;53.198;19.646;2024-01-16T01:22:46;98265.56;;;-4.26;78.37
70338;BME280;57757;53.198;19.646;2024-01-16T01:25:14;98273.88;;;-4.27;78.32
70338;BME280;57757;53.198;19.646;2024-01-16T01:27:43;98279.96;;;-4.28;78.27
70338;BME280;57757;53.198;19.646;2024-01-16T01:30:11;98285.73;;;-4.28;78.26
70338;BME280;57757;53.198;19.646;2024-01-16T01:32:39;98286.27;;;-4.30;78.32
70338;BME280;57757;53.198;19.646;2024-01-16T01:35:07;98288.97;;;-4.29;78.27
70338;BME280;57757;53.198;19.646;2024-01-16T01:37:34;98294.40;;;-4.28;78.34
70338;BME280;57757;53.198;19.646;2024-01-16T01:40:02;98297.30;;;-4.27;78.34
70338;BME280;57757;53.198;19.646;2024-01-16T01:42:30;98303.23;;;-4.25;78.41
70338;BME280;57757;53.198;19.646;2024-01-16T01:44:58;98308.02;;;-4.22;78.50
70338;BME280;57757;53.198;19.646;2024-01-16T01:47:25;98309.02;;;-4.21;78.33
70338;BME280;57757;53.198;19.646;2024-01-16T01:49:54;98316.84;;;-4.21;78.32
70338;BME280;57757;53.198;19.646;2024-01-16T01:52:21;98315.13;;;-4.21;78.32
70338;BME280;57757;53.198;19.646;2024-01-16T01:54:51;98318.20;;;-4.20;78.33
70338;BME280;57757;53.198;19.646;2024-01-16T01:57:19;98322.61;;;-4.20;78.32
70338;BME280;57757;53.198;19.646;2024-01-16T01:59:47;98327.36;;;-4.21;78.14
70338;BME280;57757;53.198;19.646;2024-01-16T02:02:15;98335.66;;;-4.23;78.14
70338;BME280;57757;53.198;19.646;2024-01-16T02:04:44;98343.97;;;-4.26;78.08
70338;BME280;57757;53.198;19.646;2024-01-16T02:07:14;98343.10;;;-4.29;78.19
70338;BME280;57757;53.198;19.646;2024-01-16T02:09:43;98349.36;;;-4.32;78.15
70338;BME280;57757;53.198;19.646;2024-01-16T02:12:11;98345.77;;;-4.37;77.98
70338;BME280;57757;53.198;19.646;2024-01-16T02:14:39;98341.84;;;-4.43;77.87
70338;BME280;57757;53.198;19.646;2024-01-16T02:17:06;98351.27;;;-4.50;77.76
70338;BME280;57757;53.198;19.646;2024-01-16T02:19:34;98355.30;;;-4.57;77.96
70338;BME280;57757;53.198;19.646;2024-01-16T02:22:04;98366.79;;;-4.63;77.82
70338;BME280;57757;53.198;19.646;2024-01-16T02:24:35;98369.10;;;-4.71;77.71
70338;BME280;57757;53.198;19.646;2024-01-16T02:27:02;98371.08;;;-4.79;77.71
70338;BME280;57757;53.198;19.646;2024-01-16T02:29:30;98375.59;;;-4.86;77.62
70338;BME280;57757;53.198;19.646;2024-01-16T02:31:58;98377.75;;;-4.91;77.85
70338;BME280;57757;53.198;19.646;2024-01-16T02:34:25;98380.42;;;-4.95;77.83
70338;BME280;57757;53.198;19.646;2024-01-16T02:36:53;98387.69;;;-4.97;77.84
70338;BME280;57757;53.198;19.646;2024-01-16T02:39:21;98392.08;;;-5.00;77.82
70338;BME280;57757;53.198;19.646;2024-01-16T02:41:48;98401.70;;;-5.03;77.81
70338;BME280;57757;53.198;19.646;2024-01-16T02:44:16;98403.70;;;-5.07;77.81
70338;BME280;57757;53.198;19.646;2024-01-16T02:46:43;98411.30;;;-5.09;77.72
70338;BME280;57757;53.198;19.646;2024-01-16T02:49:11;98420.23;;;-5.15;77.64
70338;BME280;57757;53.198;19.646;2024-01-16T02:51:39;98426.77;;;-5.20;77.64
70338;BME280;57757;53.198;19.646;2024-01-16T02:54:07;98431.80;;;-5.25;77.59
70338;BME280;57757;53.198;19.646;2024-01-16T02:56:35;98438.02;;;-5.29;77.57
70338;BME280;57757;53.198;19.646;2024-01-16T02:59:03;98438.33;;;-5.33;77.60
70338;BME280;57757;53.198;19.646;2024-01-16T03:01:30;98440.66;;;-5.37;77.62
70338;BME280;57757;53.198;19.646;2024-01-16T03:03:58;98445.52;;;-5.41;77.54
70338;BME280;57757;53.198;19.646;2024-01-16T03:06:25;98447.17;;;-5.45;77.58
70338;BME280;57757;53.198;19.646;2024-01-16T03:08:53;98455.73;;;-5.50;77.46
70338;BME280;57757;53.198;19.646;2024-01-16T03:11:21;98458.40;;;-5.55;77.48
70338;BME280;57757;53.198;19.646;2024-01-16T03:13:49;98460.89;;;-5.58;77.52
70338;BME280;57757;53.198;19.646;2024-01-16T03:16:21;98465.58;;;-5.62;77.48
70338;BME280;57757;53.198;19.646;2024-01-16T03:18:49;98466.20;;;-5.66;77.50
70338;BME280;57757;53.198;19.646;2024-01-16T03:21:17;98468.36;;;-5.69;77.48
70338;BME280;57757;53.198;19.646;2024-01-16T03:23:45;98471.38;;;-5.71;77.46
70338;BME280;57757;53.198;19.646;2024-01-16T03:26:13;98474.55;;;-5.74;77.50
70338;BME280;57757;53.198;19.646;2024-01-16T03:28:41;98480.28;;;-5.77;77.52
70338;BME280;57757;53.198;19.646;2024-01-16T03:31:09;98481.92;;;-5.81;77.37
70338;BME280;57757;53.198;19.646;2024-01-16T03:33:37;98484.73;;;-5.84;77.35
70338;BME280;57757;53.198;19.646;2024-01-16T03:36:11;98490.83;;;-5.86;77.47
70338;BME280;57757;53.198;19.646;2024-01-16T03:38:40;98489.46;;;-5.88;77.35
70338;BME280;57757;53.198;19.646;2024-01-16T03:41:08;98496.53;;;-5.90;77.38
70338;BME280;57757;53.198;19.646;2024-01-16T03:43:36;98497.21;;;-5.90;77.45
70338;BME280;57757;53.198;19.646;2024-01-16T03:46:04;98504.84;;;-5.90;77.52
70338;BME280;57757;53.198;19.646;2024-01-16T03:48:31;98505.00;;;-5.90;77.57
70338;BME280;57757;53.198;19.646;2024-01-16T03:50:59;98508.21;;;-5.91;77.55
70338;BME280;57757;53.198;19.646;2024-01-16T03:53:26;98510.41;;;-5.90;77.62
70338;BME280;57757;53.198;19.646;2024-01-16T03:55:54;98511.77;;;-5.90;77.52
70338;BME280;57757;53.198;19.646;2024-01-16T03:58:21;98516.84;;;-5.91;77.62
70338;BME280;57757;53.198;19.646;2024-01-16T04:00:50;98522.74;;;-5.92;77.52
70338;BME280;57757;53.198;19.646;2024-01-16T04:03:18;98528.48;;;-5.93;77.60
70338;BME280;57757;53.198;19.646;2024-01-16T04:05:46;98531.23;;;-5.91;77.68
70338;BME280;57757;53.198;19.646;2024-01-16T04:08:13;98533.81;;;-5.88;77.77
70338;BME280;57757;53.198;19.646;2024-01-16T04:10:41;98533.32;;;-5.85;77.78
70338;BME280;57757;53.198;19.646;2024-01-16T04:13:09;98537.74;;;-5.83;77.80
70338;BME280;57757;53.198;19.646;2024-01-16T04:15:40;98541.83;;;-5.81;77.64
70338;BME280;57757;53.198;19.646;2024-01-16T04:18:07;98546.58;;;-5.81;77.65
70338;BME280;57757;53.198;19.646;2024-01-16T04:20:35;98548.27;;;-5.82;77.53
70338;BME280;57757;53.198;19.646;2024-01-16T04:23:03;98550.27;;;-5.84;77.56
70338;BME280;57757;53.198;19.646;2024-01-16T04:25:31;98551.42;;;-5.85;77.49
70338;BME280;57757;53.198;19.646;2024-01-16T04:27:59;98551.27;;;-5.87;77.54
70338;BME280;57757;53.198;19.646;2024-01-16T04:30:30;98560.73;;;-5.88;77.53
70338;BME280;57757;53.198;19.646;2024-01-16T04:32:58;98565.08;;;-5.91;77.44
70338;BME280;57757;53.198;19.646;2024-01-16T04:35:25;98566.71;;;-5.95;77.40
70338;BME280;57757;53.198;19.646;2024-01-16T04:37:53;98576.64;;;-5.98;77.41
70338;BME280;57757;53.198;19.646;2024-01-16T04:40:20;98577.25;;;-6.02;77.26
70338;BME280;57757;53.198;19.646;2024-01-16T04:42:49;98575.51;;;-6.05;77.32
70338;BME280;57757;53.198;19.646;2024-01-16T04:45:16;98575.79;;;-6.08;77.27
70338;BME280;57757;53.198;19.646;2024-01-16T04:47:44;98571.19;;;-6.11;77.33
70338;BME280;57757;53.198;19.646;2024-01-16T04:50:12;98581.30;;;-6.12;77.39
70338;BME280;57757;53.198;19.646;2024-01-16T04:52:39;98587.35;;;-6.15;77.37
70338;BME280;57757;53.198;19.646;2024-01-16T04:55:07;98593.77;;;-6.16;77.33
70338;BME280;57757;53.198;19.646;2024-01-16T04:57:34;98591.68;;;-6.19;77.32
70338;BME280;57757;53.198;19.646;2024-01-16T05:00:03;98597.22;;;-6.22;77.36
70338;BME280;57757;53.198;19.646;2024-01-16T05:02:34;98602.59;;;-6.25;77.26
70338;BME280;57757;53.198;19.646;2024-01-16T05:05:01;98603.87;;;-6.29;77.19
70338;BME280;57757;53.198;19.646;2024-01-16T05:07:29;98606.81;;;-6.34;77.07
70338;BME280;57757;53.198;19.646;2024-01-16T05:09:57;98605.02;;;-6.40;77.11
70338;BME280;57757;53.198;19.646;2024-01-16T05:12:25;98602.27;;;-6.42;77.17
70338;BME280;57757;53.198;19.646;2024-01-16T05:14:52;98607.30;;;-6.44;77.11
70338;BME280;57757;53.198;19.646;2024-01-16T05:17:20;98611.65;;;-6.47;77.11
70338;BME280;57757;53.198;19.646;2024-01-16T05:19:48;98623.09;;;-6.50;77.10
70338;BME280;57757;53.198;19.646;2024-01-16T05:22:15;98625.54;;;-6.54;77.09
70338;BME280;57757;53.198;19.646;2024-01-16T05:24:43;98630.76;;;-6.56;77.12
70338;BME280;57757;53.198;19.646;2024-01-16T05:27:10;98634.27;;;-6.58;77.14
70338;BME280;57757;53.198;19.646;2024-01-16T05:29:41;98639.65;;;-6.60;77.14
70338;BME280;57757;53.198;19.646;2024-01-16T05:32:13;98647.90;;;-6.61;77.14
70338;BME280;57757;53.198;19.646;2024-01-16T05:34:41;98648.69;;;-6.64;77.04
70338;BME280;57757;53.198;19.646;2024-01-16T05:37:08;98643.39;;;-6.67;76.85
70338;BME280;57757;53.198;19.646;2024-01-16T05:39:36;98646.04;;;-6.70;76.96
70338;BME280;57757;53.198;19.646;2024-01-16T05:42:04;98642.95;;;-6.72;76.89
70338;BME280;57757;53.198;19.646;2024-01-16T05:44:32;98647.76;;;-6.76;76.90
70338;BME280;57757;53.198;19.646;2024-01-16T05:47:00;98654.61;;;-6.80;76.80
70338;BME280;57757;53.198;19.646;2024-01-16T05:49:27;98654.70;;;-6.85;76.80
70338;BME280;57757;53.198;19.646;2024-01-16T05:51:55;98666.45;;;-6.88;76.69
70338;BME280;57757;53.198;19.646;2024-01-16T05:54:23;98674.95;;;-6.93;76.59
70338;BME280;57757;53.198;19.646;2024-01-16T05:56:50;98677.88;;;-6.98;76.53
70338;BME280;57757;53.198;19.646;2024-01-16T05:59:19;98677.39;;;-7.05;76.46
70338;BME280;57757;53.198;19.646;2024-01-16T06:01:46;98684.34;;;-7.12;76.49
70338;BME280;57757;53.198;19.646;2024-01-16T06:04:14;98692.05;;;-7.14;76.54
70338;BME280;57757;53.198;19.646;2024-01-16T06:06:42;98693.31;;;-7.18;76.52
70338;BME280;57757;53.198;19.646;2024-01-16T06:09:13;98700.18;;;-7.20;76.55
70338;BME280;57757;53.198;19.646;2024-01-16T06:11:42;98710.77;;;-7.23;76.52
70338;BME280;57757;53.198;19.646;2024-01-16T06:14:10;98716.33;;;-7.24;76.55
70338;BME280;57757;53.198;19.646;2024-01-16T06:16:39;98719.30;;;-7.27;76.61
70338;BME280;57757;53.198;19.646;2024-01-16T06:19:07;98727.71;;;-7.29;76.57
70338;BME280;57757;53.198;19.646;2024-01-16T06:21:35;98735.09;;;-7.31;76.50
70338;BME280;57757;53.198;19.646;2024-01-16T06:24:03;98740.10;;;-7.33;76.55
70338;BME280;57757;53.198;19.646;2024-01-16T06:26:30;98745.09;;;-7.36;76.49
70338;BME280;57757;53.198;19.646;2024-01-16T06:28:59;98752.15;;;-7.37;76.53
70338;BME280;57757;53.198;19.646;2024-01-16T06:31:26;98757.02;;;-7.39;76.59
70338;BME280;57757;53.198;19.646;2024-01-16T06:33:54;98757.64;;;-7.41;76.51
70338;BME280;57757;53.198;19.646;2024-01-16T06:36:22;98760.98;;;-7.43;76.55
70338;BME280;57757;53.198;19.646;2024-01-16T06:38:49;98756.20;;;-7.45;76.50
70338;BME280;57757;53.198;19.646;2024-01-16T06:41:17;98762.64;;;-7.43;76.53
70338;BME280;57757;53.198;19.646;2024-01-16T06:43:45;98764.05;;;-7.42;76.66
70338;BME280;57757;53.198;19.646;2024-01-16T06:46:12;98774.61;;;-7.38;76.71
70338;BME280;57757;53.198;19.646;2024-01-16T06:48:40;98778.77;;;-7.33;76.72
70338;BME280;57757;53.198;19.646;2024-01-16T06:51:08;98779.88;;;-7.29;76.74
70338;BME280;57757;53.198;19.646;2024-01-16T06:53:37;98791.45;;;-7.26;76.76
70338;BME280;57757;53.198;19.646;2024-01-16T06:56:08;98795.70;;;-7.24;76.73
70338;BME280;57757;53.198;19.646;2024-01-16T06:58:36;98796.44;;;-7.22;76.79
70338;BME280;57757;53.198;19.646;2024-01-16T07:01:04;98792.93;;;-7.20;76.83
70338;BME280;57757;53.198;19.646;2024-01-16T07:03:32;98799.08;;;-7.18;76.84
70338;BME280;57757;53.198;19.646;2024-01-16T07:06:02;98801.85;;;-7.14;76.86
70338;BME280;57757;53.198;19.646;2024-01-16T07:08:30;98794.50;;;-7.11;76.86
70338;BME280;57757;53.198;19.646;2024-01-16T07:10:59;98797.35;;;-7.05;76.87
70338;BME280;57757;53.198;19.646;2024-01-16T07:13:26;98804.91;;;-7.00;76.81
70338;BME280;57757;53.198;19.646;2024-01-16T07:15:54;98808.44;;;-6.94;76.81
70338;BME280;57757;53.198;19.646;2024-01-16T07:18:22;98813.52;;;-6.87;76.95
70338;BME280;57757;53.198;19.646;2024-01-16T07:20:50;98815.20;;;-6.79;77.00
70338;BME280;57757;53.198;19.646;2024-01-16T07:23:18;98814.73;;;-6.71;77.03
70338;BME280;57757;53.198;19.646;2024-01-16T07:25:45;98822.66;;;-6.64;77.03
70338;BME280;57757;53.198;19.646;2024-01-16T07:28:13;98824.33;;;-6.58;76.96
70338;BME280;57757;53.198;19.646;2024-01-16T07:30:42;98829.89;;;-6.51;76.95
70338;BME280;57757;53.198;19.646;2024-01-16T07:33:09;98833.94;;;-6.44;76.94
70338;BME280;57757;53.198;19.646;2024-01-16T07:35:37;98830.34;;;-6.39;76.93
70338;BME280;57757;53.198;19.646;2024-01-16T07:38:08;98835.52;;;-6.33;76.94
70338;BME280;57757;53.198;19.646;2024-01-16T07:40:36;98838.70;;;-6.27;76.91
70338;BME280;57757;53.198;19.646;2024-01-16T07:43:03;98838.75;;;-6.25;76.71
70338;BME280;57757;53.198;19.646;2024-01-16T07:45:31;98840.89;;;-6.20;76.76
70338;BME280;57757;53.198;19.646;2024-01-16T07:47:59;98847.58;;;-6.16;76.88
70338;BME280;57757;53.198;19.646;2024-01-16T07:50:27;98851.88;;;-6.13;76.69
70338;BME280;57757;53.198;19.646;2024-01-16T07:52:54;98861.09;;;-6.10;76.72
70338;BME280;57757;53.198;19.646;2024-01-16T07:55:22;98864.34;;;-6.07;76.72
70338;BME280;57757;53.198;19.646;2024-01-16T07:57:55;98868.96;;;-6.05;76.70
70338;BME280;57757;53.198;19.646;2024-01-16T08:00:25;98877.98;;;-6.03;76.76
70338;BME280;57757;53.198;19.646;2024-01-16T08:02:54;98884.33;;;-5.99;76.86
70338;BME280;57757;53.198;19.646;2024-01-16T08:05:22;98887.79;;;-5.96;76.91
70338;BME280;57757;53.198;19.646;2024-01-16T08:07:54;98896.30;;;-5.94;76.76
70338;BME280;57757;53.198;19.646;2024-01-16T08:10:21;98899.39;;;-5.92;76.77
70338;BME280;57757;53.198;19.646;2024-01-16T08:12:49;98906.40;;;-5.88;76.86
70338;BME280;57757;53.198;19.646;2024-01-16T08:15:16;98905.25;;;-5.85;76.87
70338;BME280;57757;53.198;19.646;2024-01-16T08:17:44;98913.95;;;-5.83;76.83
70338;BME280;57757;53.198;19.646;2024-01-16T08:20:12;98914.60;;;-5.84;76.62
70338;BME280;57757;53.198;19.646;2024-01-16T08:22:40;98919.68;;;-5.83;76.63
70338;BME280;57757;53.198;19.646;2024-01-16T08:25:08;98921.80;;;-5.80;76.69
70338;BME280;57757;53.198;19.646;2024-01-16T08:27:36;98924.38;;;-5.77;76.68
70338;BME280;57757;53.198;19.646;2024-01-16T08:30:06;98930.02;;;-5.75;76.69
70338;BME280;57757;53.198;19.646;2024-01-16T08:32:34;98930.07;;;-5.72;76.69
70338;BME280;57757;53.198;19.646;2024-01-16T08:35:03;98931.98;;;-5.69;76.86
70338;BME280;57757;53.198;19.646;2024-01-16T08:37:35;98935.85;;;-5.64;76.91
70338;BME280;57757;53.198;19.646;2024-01-16T08:40:03;98938.51;;;-5.57;76.95
70338;BME280;57757;53.198;19.646;2024-01-16T08:42:32;98943.85;;;-5.53;76.94
70338;BME280;57757;53.198;19.646;2024-01-16T08:44:59;98944.13;;;-5.48;77.00
70338;BME280;57757;53.198;19.646;2024-01-16T08:47:27;98949.33;;;-5.42;77.01
70338;BME280;57757;53.198;19.646;2024-01-16T08:49:55;98947.41;;;-5.45;76.57
70338;BME280;57757;53.198;19.646;2024-01-16T08:52:23;98948.98;;;-5.50;76.25
70338;BME280;57757;53.198;19.646;2024-01-16T08:54:51;98957.91;;;-5.53;76.27
70338;BME280;57757;53.198;19.646;2024-01-16T08:57:18;98958.27;;;-5.52;76.24
70338;BME280;57757;53.198;19.646;2024-01-16T08:59:48;98960.46;;;-5.44;76.64
70338;BME280;57757;53.198;19.646;2024-01-16T09:02:16;98967.86;;;-5.30;76.85
70338;BME280;57757;53.198;19.646;2024-01-16T09:04:43;98971.50;;;-5.18;76.97
70338;BME280;57757;53.198;19.646;2024-01-16T09:07:11;98976.36;;;-5.03;77.37
70338;BME280;57757;53.198;19.646;2024-01-16T09:09:43;98977.33;;;-4.88;77.35
70338;BME280;57757;53.198;19.646;2024-01-16T09:12:12;98971.77;;;-4.67;77.65
70338;BME280;57757;53.198;19.646;2024-01-16T09:14:39;98970.56;;;-4.39;77.85
70338;BME280;57757;53.198;19.646;2024-01-16T09:17:08;98967.70;;;-4.16;77.85
70338;BME280;57757;53.198;19.646;2024-01-16T09:19:36;98971.36;;;-3.99;77.39
70338;BME280;57757;53.198;19.646;2024-01-16T09:22:04;98976.61;;;-3.89;77.42
70338;BME280;57757;53.198;19.646;2024-01-16T09:24:32;98982.12;;;-3.83;77.22
70338;BME280;57757;53.198;19.646;2024-01-16T09:26:59;98984.39;;;-3.79;77.17
70338;BME280;57757;53.198;19.646;2024-01-16T09:29:27;98987.20;;;-3.72;77.29
70338;BME280;57757;53.198;19.646;2024-01-16T09:31:55;98985.94;;;-3.66;77.23
70338;BME280;57757;53.198;19.646;2024-01-16T09:34:22;98990.89;;;-3.64;76.96
70338;BME280;57757;53.198;19.646;2024-01-16T09:36:50;98990.27;;;-3.60;77.10
70338;BME280;57757;53.198;19.646;2024-01-16T09:39:18;98989.64;;;-3.56;77.06
70338;BME280;57757;53.198;19.646;2024-01-16T09:41:46;98988.04;;;-3.50;77.30
70338;BME280;57757;53.198;19.646;2024-01-16T09:44:14;98987.27;;;-3.44;77.16
70338;BME280;57757;53.198;19.646;2024-01-16T09:46:44;98993.59;;;-3.42;76.91
70338;BME280;57757;53.198;19.646;2024-01-16T09:49:14;98996.35;;;-3.38;76.89
70338;BME280;57757;53.198;19.646;2024-01-16T09:51:43;99001.84;;;-3.34;76.95
70338;BME280;57757;53.198;19.646;2024-01-16T09:54:11;99000.14;;;-3.34;76.92
70338;BME280;57757;53.198;19.646;2024-01-16T09:56:42;99003.73;;;-3.32;76.83
70338;BME280;57757;53.198;19.646;2024-01-16T09:59:16;99004.75;;;-3.31;76.68
70338;BME280;57757;53.198;19.646;2024-01-16T10:01:45;99006.86;;;-3.26;76.80
70338;BME280;57757;53.198;19.646;2024-01-16T10:04:15;99012.93;;;-3.17;76.80
70338;BME280;57757;53.198;19.646;2024-01-16T10:06:46;99013.41;;;-3.07;76.87
70338;BME280;57757;53.198;19.646;2024-01-16T10:09:16;99012.74;;;-2.90;76.90
70338;BME280;57757;53.198;19.646;2024-01-16T10:11:44;99008.84;;;-2.58;77.52
70338;BME280;57757;53.198;19.646;2024-01-16T10:14:13;99009.67;;;-2.24;77.42
70338;BME280;57757;53.198;19.646;2024-01-16T10:17:01;99006.19;;;-1.92;77.56
70338;BME280;57757;53.198;19.646;2024-01-16T10:19:52;99010.23;;;-1.48;77.44
70338;BME280;57757;53.198;19.646;2024-01-16T10:22:22;99010.75;;;-1.15;77.18
70338;BME280;57757;53.198;19.646;2024-01-16T10:25:10;99012.54;;;-0.95;76.54
70338;BME280;57757;53.198;19.646;2024-01-16T10:27:40;99014.31;;;-0.75;76.50
70338;BME280;57757;53.198;19.646;2024-01-16T10:30:08;99009.75;;;-0.56;76.70
70338;BME280;57757;53.198;19.646;2024-01-16T10:32:39;99013.91;;;-0.28;77.02
70338;BME280;57757;53.198;19.646;2024-01-16T10:35:09;99014.78;;;0.01;77.31
70338;BME280;57757;53.198;19.646;2024-01-16T10:40:21;99024.52;;;0.22;75.57
70338;BME280;57757;53.198;19.646;2024-01-16T10:42:58;99027.42;;;0.25;75.63
70338;BME280;57757;53.198;19.646;2024-01-16T10:45:28;99029.98;;;0.32;75.81
70338;BME280;57757;53.198;19.646;2024-01-16T10:48:12;99031.88;;;0.10;75.15
70338;BME280;57757;53.198;19.646;2024-01-16T10:50:43;99035.76;;;-0.34;74.41
70338;BME280;57757;53.198;19.646;2024-01-16T10:53:15;99044.59;;;-0.60;75.01
70338;BME280;57757;53.198;19.646;2024-01-16T10:55:50;99042.87;;;-0.65;75.30
70338;BME280;57757;53.198;19.646;2024-01-16T10:58:24;99046.85;;;-0.53;75.68
70338;BME280;57757;53.198;19.646;2024-01-16T11:00:54;99053.14;;;-0.55;75.16
70338;BME280;57757;53.198;19.646;2024-01-16T11:06:08;99052.37;;;-0.09;75.89
70338;BME280;57757;53.198;19.646;2024-01-16T11:08:37;99050.69;;;0.21;76.17
70338;BME280;57757;53.198;19.646;2024-01-16T11:11:05;99051.84;;;0.56;76.23
70338;BME280;57757;53.198;19.646;2024-01-16T11:13:38;99053.19;;;0.77;75.14
70338;BME280;57757;53.198;19.646;2024-01-16T11:16:06;99053.16;;;0.88;75.29
70338;BME280;57757;53.198;19.646;2024-01-16T11:18:36;99047.47;;;1.01;74.87
70338;BME280;57757;53.198;19.646;2024-01-16T11:21:09;99048.25;;;1.21;75.50
70338;BME280;57757;53.198;19.646;2024-01-16T11:23:45;99047.27;;;1.48;75.32
70338;BME280;57757;53.198;19.646;2024-01-16T11:26:31;99050.05;;;1.69;75.59
70338;BME280;57757;53.198;19.646;2024-01-16T11:31:56;99054.45;;;1.83;74.30
70338;BME280;57757;53.198;19.646;2024-01-16T11:37:26;99065.86;;;1.62;73.98
70338;BME280;57757;53.198;19.646;2024-01-16T11:42:44;99069.52;;;1.51;74.10
70338;BME280;57757;53.198;19.646;2024-01-16T11:48:15;99082.51;;;1.60;74.07
70338;BME280;57757;53.198;19.646;2024-01-16T11:50:44;99086.11;;;1.59;73.85
70338;BME280;57757;53.198;19.646;2024-01-16T11:53:32;99089.05;;;1.54;73.47
70338;BME280;57757;53.198;19.646;2024-01-16T12:01:50;99087.16;;;1.09;73.78
70338;BME280;57757;53.198;19.646;2024-01-16T12:04:20;99083.36;;;1.15;73.89
70338;BME280;57757;53.198;19.646;2024-01-16T12:07:05;99089.50;;;1.27;74.02
70338;BME280;57757;53.198;19.646;2024-01-16T12:09:33;99089.81;;;1.30;73.77
70338;BME280;57757;53.198;19.646;2024-01-16T12:12:02;99089.45;;;1.41;74.40
70338;BME280;57757;53.198;19.646;2024-01-16T12:14:30;99089.88;;;1.56;74.17
70338;BME280;57757;53.198;19.646;2024-01-16T12:17:14;99087.50;;;1.54;73.51
70338;BME280;57757;53.198;19.646;2024-01-16T12:19:43;99086.33;;;1.49;73.39
70338;BME280;57757;53.198;19.646;2024-01-16T12:22:16;99086.69;;;1.42;73.33
70338;BME280;57757;53.198;19.646;2024-01-16T12:24:45;99090.98;;;1.38;72.84
70338;BME280;57757;53.198;19.646;2024-01-16T12:27:13;99087.83;;;1.12;72.33
70338;BME280;57757;53.198;19.646;2024-01-16T12:29:41;99088.07;;;0.88;72.63
70338;BME280;57757;53.198;19.646;2024-01-16T12:32:10;99086.90;;;0.62;72.45
70338;BME280;57757;53.198;19.646;2024-01-16T12:34:48;99090.01;;;0.47;72.93
70338;BME280;57757;53.198;19.646;2024-01-16T12:37:16;99094.29;;;0.37;73.03
70338;BME280;57757;53.198;19.646;2024-01-16T12:39:44;99100.44;;;0.24;72.85
70338;BME280;57757;53.198;19.646;2024-01-16T12:42:12;99103.66;;;0.08;72.96
70338;BME280;57757;53.198;19.646;2024-01-16T12:44:40;99104.14;;;-0.11;72.81
70338;BME280;57757;53.198;19.646;2024-01-16T12:47:08;99110.75;;;-0.35;72.68
70338;BME280;57757;53.198;19.646;2024-01-16T12:49:42;99121.28;;;-0.53;72.73
70338;BME280;57757;53.198;19.646;2024-01-16T12:52:20;99123.95;;;-0.67;72.91
70338;BME280;57757;53.198;19.646;2024-01-16T12:54:59;99130.05;;;-0.75;73.34
70338;BME280;57757;53.198;19.646;2024-01-16T12:57:32;99133.66;;;-0.72;73.23
70338;BME280;57757;53.198;19.646;2024-01-16T13:00:00;99140.91;;;-0.89;72.55
70338;BME280;57757;53.198;19.646;2024-01-16T13:02:32;99142.69;;;-1.04;72.75
70338;BME280;57757;53.198;19.646;2024-01-16T13:05:01;99146.94;;;-1.09;73.18
70338;BME280;57757;53.198;19.646;2024-01-16T13:07:31;99150.59;;;-1.21;73.08
70338;BME280;57757;53.198;19.646;2024-01-16T13:12:36;99150.77;;;-1.64;72.77
70338;BME280;57757;53.198;19.646;2024-01-16T13:15:05;99157.83;;;-1.75;72.75
70338;BME280;57757;53.198;19.646;2024-01-16T13:17:36;99163.80;;;-1.91;72.53
70338;BME280;57757;53.198;19.646;2024-01-16T13:20:05;99167.20;;;-2.10;72.55
70338;BME280;57757;53.198;19.646;2024-01-16T13:22:35;99170.80;;;-2.22;72.60
70338;BME280;57757;53.198;19.646;2024-01-16T13:25:13;99174.06;;;-2.35;72.69